Time;durP1;ratioP1;P1;durP2;ratioP2;P2;SDS_P1;SDS_P2;PMS_P1;PMS_P2;Temp;Humidity;BMP_temperature;BMP_pressure;BME280_temperature;BME280_humidity;BME280_pressure;Samples;Min_cycle;Max_cycle;Signal;HPM_P1;HPM_P2
2022/06/07 00:02:28;;;;;;;3.90;3.30;;;;;;;;;;5087391;28;20240;-55
2022/06/07 00:04:55;;;;;;;4.07;3.63;;;;;;;;;;5085425;28;20028;-54
2022/06/07 00:07:22;;;;;;;4.10;3.70;;;;;;;;;;5087346;28;20030;-56
2022/06/07 00:09:47;;;;;;;4.20;3.78;;;;;;;;;;5081887;28;20020;-56
2022/06/07 00:12:14;;;;;;;4.45;3.58;;;;;;;;;;5090691;28;20036;-55
2022/06/07 00:14:40;;;;;;;5.18;3.97;;;;;;;;;;5077704;28;20115;-56
2022/06/07 00:17:06;;;;;;;5.68;4.00;;;;;;;;;;5093505;28;20110;-55
2022/06/07 00:19:33;;;;;;;5.13;4.35;;;;;;;;;;5084807;28;20029;-56
2022/06/07 00:21:59;;;;;;;5.30;4.75;;;;;;;;;;5094955;28;20510;-55
2022/06/07 00:24:25;;;;;;;5.30;4.80;;;;;;;;;;5088037;28;20032;-56
2022/06/07 00:26:52;;;;;;;8.13;5.00;;;;;;;;;;5092543;28;20031;-56
2022/06/07 00:29:18;;;;;;;6.07;5.00;;;;;;;;;;5084479;28;20468;-56
2022/06/07 00:31:44;;;;;;;7.63;5.72;;;;;;;;;;5083245;28;20028;-55
2022/06/07 00:34:11;;;;;;;6.90;5.32;;;;;;;;;;5098228;28;20122;-56
2022/06/07 00:36:37;;;;;;;5.97;5.30;;;;;;;;;;5087399;28;20059;-56
2022/06/07 00:39:04;;;;;;;6.05;5.45;;;;;;;;;;5084189;27;20020;-56
2022/06/07 00:41:30;;;;;;;6.18;5.38;;;;;;;;;;5086359;28;20032;-56
2022/06/07 00:44:14;;;;;;;6.07;5.47;;;;;;;;;;5081492;28;20542;-56
2022/06/07 00:46:43;;;;;;;9.02;6.03;;;;;;;;;;5086053;28;20072;-56
2022/06/07 00:49:09;;;;;;;7.88;6.30;;;;;;;;;;5076956;28;20078;-55
2022/06/07 00:51:35;;;;;;;9.52;6.55;;;;;;;;;;5092603;28;20074;-55
2022/06/07 00:54:01;;;;;;;8.20;6.65;;;;;;;;;;5089097;28;20028;-55
2022/06/07 00:56:27;;;;;;;8.18;7.10;;;;;;;;;;5088023;28;20030;-55
2022/06/07 00:58:53;;;;;;;8.95;7.00;;;;;;;;;;5088590;28;20035;-56
2022/06/07 01:01:19;;;;;;;9.98;7.38;;;;;;;;;;5092643;28;20028;-56
2022/06/07 01:03:48;;;;;;;8.77;7.13;;;;;;;;;;5086152;28;20023;-55
2022/06/07 01:11:43;;;;;;;8.52;7.63;;;;;;;;;;5084240;28;20100;-56
2022/06/07 01:14:09;;;;;;;8.23;7.35;;;;;;;;;;5095190;28;20929;-55
2022/06/07 01:16:35;;;;;;;9.95;8.88;;;;;;;;;;5086329;28;20407;-56
2022/06/07 01:19:01;;;;;;;9.43;8.48;;;;;;;;;;5089694;28;20032;-55
2022/06/07 01:21:27;;;;;;;10.40;8.95;;;;;;;;;;5087788;28;20049;-56
2022/06/07 01:23:53;;;;;;;11.02;9.40;;;;;;;;;;5086560;28;20031;-55
2022/06/07 01:26:19;;;;;;;10.15;8.95;;;;;;;;;;5091251;28;20039;-55
2022/06/07 01:28:45;;;;;;;10.43;9.32;;;;;;;;;;5104396;28;20067;-55
2022/06/07 01:31:11;;;;;;;10.38;9.13;;;;;;;;;;5089856;27;20023;-55
2022/06/07 01:33:37;;;;;;;10.15;9.05;;;;;;;;;;5093120;28;20032;-55
2022/06/07 01:36:06;;;;;;;10.70;8.70;;;;;;;;;;5085821;28;20117;-55
2022/06/07 01:38:33;;;;;;;10.52;9.38;;;;;;;;;;5071349;28;20030;-55
2022/06/07 01:43:44;;;;;;;9.05;8.10;;;;;;;;;;5084111;28;20088;-55
2022/06/07 01:46:10;;;;;;;10.18;8.57;;;;;;;;;;5096264;28;20028;-55
2022/06/07 01:48:36;;;;;;;10.23;8.02;;;;;;;;;;5082549;28;20036;-55
2022/06/07 01:51:03;;;;;;;11.45;7.55;;;;;;;;;;5092097;28;20039;-55
2022/06/07 01:53:29;;;;;;;12.45;7.80;;;;;;;;;;5083888;28;20153;-55
2022/06/07 01:56:02;;;;;;;8.65;7.75;;;;;;;;;;5086303;28;20024;-54
2022/06/07 01:58:29;;;;;;;9.43;7.65;;;;;;;;;;5085534;28;20054;-55
2022/06/07 02:00:55;;;;;;;10.13;8.55;;;;;;;;;;5093229;28;20146;-55
2022/06/07 02:03:21;;;;;;;8.52;7.43;;;;;;;;;;5089567;28;20099;-55
2022/06/07 02:05:54;;;;;;;12.95;7.55;;;;;;;;;;5077896;28;20104;-54
2022/06/07 02:08:19;;;;;;;8.32;6.72;;;;;;;;;;5093697;28;20039;-54
2022/06/07 02:10:45;;;;;;;9.23;7.35;;;;;;;;;;5089486;28;20028;-55
2022/06/07 02:13:11;;;;;;;9.35;7.10;;;;;;;;;;5084896;28;20082;-54
2022/06/07 02:15:37;;;;;;;9.90;7.30;;;;;;;;;;5088670;28;20043;-55
2022/06/07 02:18:03;;;;;;;8.02;7.22;;;;;;;;;;5081273;28;20106;-54
2022/06/07 02:20:29;;;;;;;10.98;7.25;;;;;;;;;;5085939;28;20024;-54
2022/06/07 02:22:55;;;;;;;10.95;7.57;;;;;;;;;;5085094;28;20021;-55
2022/06/07 02:25:21;;;;;;;9.10;7.97;;;;;;;;;;5075741;28;20107;-55
2022/06/07 02:27:47;;;;;;;12.43;9.50;;;;;;;;;;5088276;28;20051;-54
2022/06/07 02:30:14;;;;;;;12.93;9.38;;;;;;;;;;5080495;28;20059;-55
2022/06/07 02:32:41;;;;;;;14.75;9.35;;;;;;;;;;5092135;28;20106;-54
2022/06/07 02:35:07;;;;;;;12.40;8.90;;;;;;;;;;5079741;28;20023;-56
2022/06/07 02:37:35;;;;;;;12.68;7.43;;;;;;;;;;5087666;28;20520;-55
2022/06/07 02:40:02;;;;;;;11.07;7.28;;;;;;;;;;5080172;28;20390;-55
2022/06/07 02:42:29;;;;;;;9.57;6.65;;;;;;;;;;5085235;28;20036;-55
2022/06/07 02:44:57;;;;;;;9.52;6.20;;;13.20;99.90;;;;;;5084077;28;20471;-54
2022/06/07 02:47:23;;;;;;;11.10;6.28;;;13.10;99.90;;;;;;5089499;28;20104;-54
2022/06/07 02:49:49;;;;;;;7.10;5.53;;;13.20;99.90;;;;;;5083670;28;20061;-56
2022/06/07 02:52:15;;;;;;;10.00;6.18;;;13.20;99.90;;;;;;5088010;28;20020;-54
2022/06/07 02:54:40;;;;;;;12.77;6.15;;;13.20;99.90;;;;;;5079584;28;20031;-54
2022/06/07 02:57:06;;;;;;;8.35;5.65;;;13.20;99.90;;;;;;5090344;28;20106;-55
2022/06/07 02:59:32;;;;;;;11.05;6.18;;;13.10;99.90;;;;;;5088376;28;20027;-55
2022/06/07 03:01:58;;;;;;;8.15;5.60;;;13.30;99.90;;;;;;5077232;28;20102;-56
2022/06/07 03:04:27;;;;;;;5.82;5.25;;;13.30;99.90;;;;;;5075562;28;20617;-55
2022/06/07 03:06:52;;;;;;;7.47;4.82;;;13.20;99.90;;;;;;5080023;28;20035;-54
2022/06/07 03:09:18;;;;;;;8.40;5.38;;;13.00;99.90;;;;;;5089256;28;20023;-55
2022/06/07 03:11:44;;;;;;;7.45;4.90;;;12.90;99.90;;;;;;5086865;28;20027;-55
2022/06/07 03:14:10;;;;;;;6.88;5.07;;;12.90;99.90;;;;;;5086204;28;20063;-54
2022/06/07 03:16:36;;;;;;;5.25;4.20;;;12.80;99.90;;;;;;5078248;28;20047;-54
2022/06/07 03:19:02;;;;;;;8.45;4.47;;;12.80;99.90;;;;;;5080798;28;20103;-55
2022/06/07 03:21:28;;;;;;;7.80;4.70;;;12.80;99.90;;;;;;5078349;28;20062;-55
2022/06/07 03:23:54;;;;;;;8.43;4.90;;;12.90;99.90;;;;;;5089363;28;20027;-54
2022/06/07 03:26:19;;;;;;;7.20;4.53;;;12.90;99.90;;;;;;5088667;28;20046;-54
2022/06/07 03:28:45;;;;;;;7.75;4.32;;;12.80;99.90;;;;;;5097364;28;20031;-54
2022/06/07 03:31:16;;;;;;;6.13;4.35;;;12.80;99.90;;;;;;5088025;28;20027;-55
2022/06/07 03:33:43;;;;;;;8.55;4.40;;;13.00;99.90;;;;;;5082154;28;20465;-55
2022/06/07 03:36:13;;;;;;;7.18;4.40;;;13.00;99.90;;;;;;5082076;28;20034;-55
2022/06/07 03:38:40;;;;;;;7.75;4.90;;;12.90;99.90;;;;;;5084617;28;20027;-54
2022/06/07 03:41:06;;;;;;;9.75;4.63;;;12.80;99.90;;;;;;5081243;28;20024;-55
2022/06/07 03:43:32;;;;;;;6.47;4.00;;;12.90;99.90;;;;;;5092492;28;20106;-54
2022/06/07 03:46:13;;;;;;;9.93;4.22;;;12.80;99.90;;;;;;5088456;28;20775;-55
2022/06/07 03:48:43;;;;;;;6.85;4.38;;;12.90;99.90;;;;;;5082782;28;20033;-55
2022/06/07 03:51:10;;;;;;;10.32;4.63;;;12.90;99.90;;;;;;5083267;28;20647;-54
2022/06/07 03:53:36;;;;;;;7.28;4.40;;;12.90;99.90;;;;;;5082906;28;20012;-55
2022/06/07 03:56:03;;;;;;;7.38;4.10;;;13.00;99.90;;;;;;5081121;28;20063;-55
2022/06/07 03:58:28;;;;;;;6.93;4.10;;;13.00;99.90;;;;;;5080777;28;20028;-54
2022/06/07 04:00:59;;;;;;;6.57;4.18;;;13.10;99.90;;;;;;5084460;28;20016;-54
2022/06/07 04:03:25;;;;;;;9.15;4.43;;;13.10;99.90;;;;;;5083984;28;20024;-54
2022/06/07 04:05:51;;;;;;;7.60;4.50;;;13.20;99.90;;;;;;5077966;28;20048;-55
2022/06/07 04:08:17;;;;;;;9.32;4.80;;;13.30;99.90;;;;;;5085187;28;20027;-54
2022/06/07 04:10:48;;;;;;;5.80;3.90;;;13.30;99.90;;;;;;5091882;28;20030;-54
2022/06/07 04:13:14;;;;;;;10.25;4.38;;;13.30;99.90;;;;;;5086854;28;20496;-54
2022/06/07 04:15:41;;;;;;;9.40;4.50;;;13.40;99.90;;;;;;5086970;28;20024;-54
2022/06/07 04:18:07;;;;;;;8.57;4.03;;;13.40;99.90;;;;;;5088389;28;20085;-55
2022/06/07 04:20:32;;;;;;;6.43;4.40;;;13.40;99.90;;;;;;5083095;28;20025;-55
2022/06/07 04:22:58;;;;;;;9.88;4.53;;;13.60;99.90;;;;;;5085118;28;20519;-54
2022/06/07 04:25:24;;;;;;;13.43;4.45;;;13.60;99.90;;;;;;5080330;28;20024;-55
2022/06/07 04:27:50;;;;;;;7.25;4.25;;;13.60;99.90;;;;;;5086548;28;20084;-55
2022/06/07 04:30:16;;;;;;;7.38;3.90;;;13.70;99.90;;;;;;5084888;28;20024;-54
2022/06/07 04:32:46;;;;;;;8.88;4.05;;;13.80;99.90;;;;;;5086601;28;20081;-55
2022/06/07 04:35:15;;;;;;;9.70;4.25;;;13.70;99.90;;;;;;5082065;28;20024;-55
2022/06/07 04:37:41;;;;;;;9.18;3.80;;;13.80;99.90;;;;;;5089308;28;20114;-54
2022/06/07 04:40:07;;;;;;;5.50;3.65;;;13.80;99.90;;;;;;5081906;28;20107;-56
2022/06/07 04:42:33;;;;;;;7.53;4.32;;;14.00;99.90;;;;;;5092505;28;20028;-55
2022/06/07 04:44:58;;;;;;;7.88;3.78;;;14.00;99.90;;;;;;5088460;28;20024;-55
2022/06/07 04:47:24;;;;;;;7.47;4.05;;;14.00;99.90;;;;;;5086083;28;20024;-54
2022/06/07 04:49:49;;;;;;;10.15;4.05;;;14.00;99.90;;;;;;5084969;28;20020;-56
2022/06/07 04:52:15;;;;;;;7.53;3.60;;;14.00;99.90;;;;;;5092505;28;20035;-54
2022/06/07 04:54:41;;;;;;;8.50;3.50;;;14.10;99.90;;;;;;5080075;28;20088;-54
2022/06/07 04:57:06;;;;;;;7.50;3.80;;;14.00;99.90;;;;;;5079882;28;20020;-55
2022/06/07 04:59:32;;;;;;;9.60;4.10;;;14.20;99.90;;;;;;5087306;28;20020;-55
2022/06/07 05:01:57;;;;;;;8.68;3.72;;;14.30;99.90;;;;;;5082886;28;20082;-56
2022/06/07 05:04:23;;;;;;;8.88;3.55;;;14.40;99.90;;;;;;5086571;28;20031;-56
2022/06/07 05:06:50;;;;;;;10.68;4.10;;;14.40;99.90;;;;;;5089484;28;20090;-55
2022/06/07 05:09:20;;;;;;;6.00;3.53;;;14.80;99.90;;;;;;5087002;28;20060;-55
2022/06/07 05:11:47;;;;;;;9.93;3.58;;;14.50;99.90;;;;;;5087820;27;20089;-55
2022/06/07 05:14:13;;;;;;;6.93;3.25;;;14.50;99.90;;;;;;5073115;28;20672;-56
2022/06/07 05:16:41;;;;;;;7.72;3.50;;;14.60;99.90;;;;;;5077822;28;20451;-56
2022/06/07 05:19:08;;;;;;;8.30;3.67;;;14.50;99.90;;;;;;5087379;28;21014;-56
2022/06/07 05:21:34;;;;;;;8.55;3.72;;;14.60;99.90;;;;;;5079921;28;20491;-56
2022/06/07 05:23:59;;;;;;;5.82;3.72;;;14.70;99.90;;;;;;5086615;28;20267;-56
2022/06/07 05:26:35;;;;;;;9.15;3.72;;;14.90;99.90;;;;;;5080252;28;20036;-57
2022/06/07 05:29:01;;;;;;;6.88;3.50;;;14.80;99.90;;;;;;5094375;28;20043;-58
2022/06/07 05:31:27;;;;;;;6.93;3.75;;;14.80;99.90;;;;;;5091995;28;20032;-57
2022/06/07 05:33:53;;;;;;;8.43;3.42;;;14.70;99.90;;;;;;5083054;28;20047;-57
2022/06/07 05:36:19;;;;;;;7.53;3.53;;;15.00;99.90;;;;;;5085889;28;20016;-58
2022/06/07 05:38:45;;;;;;;7.45;3.42;;;14.80;99.90;;;;;;5081267;28;20058;-57
2022/06/07 05:41:17;;;;;;;10.98;3.63;;;;;;;;;;5084086;28;20119;-59
2022/06/07 05:43:43;;;;;;;7.28;3.30;;;14.80;99.90;;;;;;5095070;28;20597;-57
2022/06/07 05:46:09;;;;;;;5.75;3.03;;;15.00;99.90;;;;;;5094539;28;20058;-58
2022/06/07 05:48:35;;;;;;;5.45;3.10;;;15.00;99.90;;;;;;5082650;28;20032;-58
2022/06/07 05:51:01;;;;;;;7.93;3.45;;;15.00;99.90;;;;;;5089396;28;20036;-58
2022/06/07 05:53:27;;;;;;;6.07;3.03;;;15.10;99.90;;;;;;5089061;28;20446;-59
2022/06/07 05:55:52;;;;;;;8.52;3.83;;;15.20;99.90;;;;;;5085768;28;20031;-59
2022/06/07 05:58:18;;;;;;;10.27;3.60;;;15.30;99.90;;;;;;5083500;28;20044;-58
2022/06/07 06:00:43;;;;;;;5.85;3.10;;;15.50;99.90;;;;;;5081814;28;20032;-58
2022/06/07 06:03:10;;;;;;;8.63;3.25;;;15.70;99.90;;;;;;5073259;28;20021;-59
2022/06/07 06:05:36;;;;;;;6.45;3.05;;;15.70;99.90;;;;;;5076553;28;20031;-58
2022/06/07 06:10:47;;;;;;;7.32;3.25;;;15.80;99.90;;;;;;5065484;28;20425;-59
2022/06/07 06:13:13;;;;;;;5.78;3.10;;;15.80;99.90;;;;;;5072979;28;20107;-58
2022/06/07 06:15:38;;;;;;;15.15;9.60;;;15.90;99.90;;;;;;5082783;28;20127;-59
2022/06/07 06:18:05;;;;;;;7.30;3.30;;;15.90;99.90;;;;;;5077317;28;20052;-59
2022/06/07 06:20:31;;;;;;;6.25;3.33;;;15.80;99.90;;;;;;5070591;28;20035;-60
2022/06/07 06:22:57;;;;;;;7.80;3.28;;;15.90;99.90;;;;;;5076873;28;20376;-59
2022/06/07 06:25:23;;;;;;;7.63;3.50;;;16.10;99.90;;;;;;5086928;28;20123;-58
2022/06/07 06:27:49;;;;;;;9.18;3.50;;;16.20;99.90;;;;;;5072436;28;20028;-59
2022/06/07 06:30:15;;;;;;;7.22;3.50;;;16.30;99.90;;;;;;5071290;28;20076;-59
2022/06/07 06:32:40;;;;;;;6.25;3.20;;;16.40;99.90;;;;;;5079378;28;20036;-60
2022/06/07 06:35:06;;;;;;;6.38;2.90;;;16.50;99.90;;;;;;5081940;28;20586;-59
2022/06/07 06:37:32;;;;;;;7.03;3.45;;;16.70;99.90;;;;;;5084693;28;20096;-59
2022/06/07 06:39:58;;;;;;;7.95;3.40;;;16.70;99.90;;;;;;5074794;28;20027;-59
2022/06/07 06:42:23;;;;;;;8.90;3.70;;;16.80;99.90;;;;;;5083524;28;20024;-59
2022/06/07 06:44:49;;;;;;;6.57;3.53;;;16.80;99.90;;;;;;5077555;28;20085;-59
2022/06/07 06:47:15;;;;;;;6.55;3.38;;;16.80;99.90;;;;;;5090965;28;20020;-59
2022/06/07 06:49:41;;;;;;;6.68;3.67;;;17.00;99.90;;;;;;5082043;28;20089;-59
2022/06/07 06:52:10;;;;;;;7.53;3.65;;;17.10;99.90;;;;;;5076336;28;20032;-59
2022/06/07 06:54:37;;;;;;;9.13;3.70;;;17.10;99.90;;;;;;5079827;28;20043;-59
2022/06/07 06:57:03;;;;;;;9.23;3.63;;;17.10;99.90;;;;;;5083160;28;20036;-59
2022/06/07 06:59:31;;;;;;;8.85;3.40;;;17.30;99.90;;;;;;5084920;28;20032;-59
2022/06/07 07:01:57;;;;;;;7.22;3.75;;;17.40;99.90;;;;;;5084108;28;20278;-60
2022/06/07 07:04:22;;;;;;;7.15;3.20;;;17.50;99.90;;;;;;5084813;28;20107;-59
2022/06/07 07:06:48;;;;;;;8.60;3.75;;;17.70;99.90;;;;;;5079950;28;21763;-59
2022/06/07 07:09:17;;;;;;;6.63;3.65;;;17.60;99.90;;;;;;5079290;28;20038;-58
2022/06/07 07:11:49;;;;;;;6.22;3.20;;;17.80;99.90;;;;;;5080656;28;20024;-58
2022/06/07 07:14:15;;;;;;;8.20;3.75;;;17.80;99.90;;;;;;5083226;28;20031;-59
2022/06/07 07:16:46;;;;;;;6.35;3.22;;;;;;;;;;5075961;28;20032;-59
2022/06/07 07:19:13;;;;;;;8.65;3.85;;;17.80;99.90;;;;;;5079730;28;20034;-60
2022/06/07 07:21:41;;;;;;;6.95;3.50;;;17.90;99.90;;;;;;5075871;28;20025;-58
2022/06/07 07:24:13;;;;;;;4.80;3.40;;;18.10;99.90;;;;;;5078997;28;20043;-58
2022/06/07 07:26:39;;;;;;;9.30;3.70;;;18.20;99.90;;;;;;5078522;28;20029;-58
2022/06/07 07:29:05;;;;;;;9.73;4.18;;;18.10;99.90;;;;;;5085733;28;20106;-59
2022/06/07 07:31:36;;;;;;;10.15;4.40;;;18.20;99.90;;;;;;5077950;28;20032;-59
2022/06/07 07:34:03;;;;;;;7.30;3.95;;;18.20;99.90;;;;;;5091681;28;20505;-59
2022/06/07 07:36:29;;;;;;;9.30;3.38;;;18.30;99.90;;;;;;5087803;28;20023;-59
2022/06/07 07:38:56;;;;;;;8.02;3.90;;;18.40;99.90;;;;;;5086987;28;20675;-59
2022/06/07 07:41:34;;;;;;;8.63;4.10;;;18.40;99.90;;;;;;5085688;28;20070;-59
2022/06/07 07:44:01;;;;;;;7.63;3.90;;;18.60;99.90;;;;;;5082854;28;20123;-58
2022/06/07 07:46:30;;;;;;;7.13;3.53;;;18.50;99.90;;;;;;5085609;28;20032;-59
2022/06/07 07:48:56;;;;;;;7.68;4.18;;;18.60;99.90;;;;;;5088498;28;20555;-59
2022/06/07 07:51:33;;;;;;;8.43;3.65;;;18.50;99.90;;;;;;5087460;28;20017;-56
2022/06/07 07:54:01;;;;;;;9.27;3.50;;;18.40;99.90;;;;;;5078506;28;20065;-57
2022/06/07 07:56:27;;;;;;;7.25;3.60;;;18.60;99.90;;;;;;5083173;28;20028;-58
2022/06/07 07:58:55;;;;;;;5.72;3.00;;;18.80;99.90;;;;;;5072706;28;20602;-58
2022/06/07 08:01:25;;;;;;;6.50;3.22;;;18.90;99.90;;;;;;5080869;28;20051;-57
2022/06/07 08:03:52;;;;;;;8.18;3.17;;;19.10;99.90;;;;;;5073541;28;20141;-57
2022/06/07 08:06:20;;;;;;;6.85;3.17;;;19.20;99.90;;;;;;5082575;28;20029;-57
2022/06/07 08:08:48;;;;;;;9.95;3.45;;;19.20;99.90;;;;;;5081625;28;20031;-56
2022/06/07 08:11:16;;;;;;;6.43;3.25;;;19.40;99.90;;;;;;5076180;28;20031;-56
2022/06/07 08:13:42;;;;;;;8.75;3.50;;;19.40;99.90;;;;;;5087001;28;20039;-57
2022/06/07 08:16:08;;;;;;;9.18;3.30;;;19.40;99.90;;;;;;5081053;28;20131;-57
2022/06/07 08:18:35;;;;;;;4.80;3.05;;;19.50;99.90;;;;;;5089132;28;20024;-57
2022/06/07 08:21:05;;;;;;;6.85;3.20;;;19.60;99.90;;;;;;5085511;28;20024;-57
2022/06/07 08:23:31;;;;;;;7.57;3.97;;;19.60;99.90;;;;;;5087138;28;20439;-57
2022/06/07 08:25:57;;;;;;;9.30;3.20;;;19.50;99.90;;;;;;5082203;28;20514;-57
2022/06/07 08:28:23;;;;;;;6.40;3.58;;;19.40;99.90;;;;;;5086133;28;20029;-58
2022/06/07 08:30:49;;;;;;;7.13;3.10;;;19.50;99.90;;;;;;5089279;28;20025;-57
2022/06/07 08:38:43;;;;;;;6.20;2.80;;;19.50;99.90;;;;;;5087462;28;20031;-58
2022/06/07 08:41:46;;;;;;;7.03;2.60;;;19.70;99.90;;;;;;5085055;28;20035;-58
2022/06/07 08:44:27;;;;;;;3.83;2.50;;;19.80;99.90;;;;;;5082188;28;20046;-57
2022/06/07 08:46:57;;;;;;;7.38;3.22;;;20.10;99.90;;;;;;5085224;28;20082;-58
2022/06/07 08:49:23;;;;;;;9.52;2.60;;;20.00;99.90;;;;;;5086433;28;20046;-56
2022/06/07 08:52:07;;;;;;;6.85;3.05;;;20.10;99.90;;;;;;5085121;28;20534;-58
2022/06/07 08:54:37;;;;;;;5.63;2.45;;;20.00;99.90;;;;;;5075247;28;20111;-57
2022/06/07 08:57:25;;;;;;;3.63;2.17;;;20.10;99.90;;;;;;5076894;28;20036;-57
2022/06/07 08:59:54;;;;;;;6.75;2.28;;;;;;;;;;5092014;28;20033;-57
2022/06/07 09:02:34;;;;;;;10.07;2.60;;;;;;;;;;5077424;28;20192;-57
2022/06/07 09:05:00;;;;;;;4.15;2.08;;;;;;;;;;5083654;28;20071;-57
2022/06/07 09:07:26;;;;;;;7.53;2.67;;;;;;;;;;5083458;28;20063;-57
2022/06/07 09:12:54;;;;;;;4.85;2.25;;;;;;;;;;5086115;28;20046;-58
2022/06/07 09:15:21;;;;;;;8.73;2.22;;;;;;;;;;5087322;28;20535;-57
2022/06/07 09:17:48;;;;;;;4.82;2.40;;;;;;;;;;5086319;28;20365;-58
2022/06/07 09:20:19;;;;;;;5.00;2.10;;;;;;;;;;5087499;28;20028;-56
2022/06/07 09:22:58;;;;;;;3.67;1.98;;;20.10;99.90;;;;;;5081913;28;20024;-57
2022/06/07 09:25:34;;;;;;;4.38;2.00;;;20.10;99.90;;;;;;5078122;28;20036;-57
2022/06/07 09:28:00;;;;;;;6.47;2.28;;;20.10;99.90;;;;;;5083677;28;20040;-58
2022/06/07 09:30:29;;;;;;;8.32;2.50;;;20.10;99.90;;;;;;5086824;28;20055;-58
2022/06/07 09:32:55;;;;;;;9.50;3.42;;;20.20;99.90;;;;;;5086178;28;20031;-58
2022/06/07 09:35:40;;;;;;;6.68;2.25;;;20.30;99.90;;;;;;5077502;28;20046;-57
2022/06/07 09:38:22;;;;;;;4.95;2.10;;;20.60;99.90;;;;;;5093818;28;20028;-59
2022/06/07 09:41:04;;;;;;;5.75;2.15;;;20.80;99.90;;;;;;5081449;28;20032;-57
2022/06/07 09:43:42;;;;;;;3.30;1.70;;;20.80;99.90;;;;;;5077294;28;20058;-57
2022/06/07 09:46:11;;;;;;;5.60;1.80;;;20.80;99.90;;;;;;5087010;28;20657;-57
2022/06/07 09:48:40;;;;;;;4.95;1.45;;;20.60;99.90;;;;;;5091493;28;20677;-58
2022/06/07 09:51:14;;;;;;;3.65;1.65;;;20.60;99.90;;;;;;5081044;28;20027;-56
2022/06/07 09:53:43;;;;;;;4.95;1.60;;;20.50;99.90;;;;;;5086436;28;20099;-57
2022/06/07 09:56:34;;;;;;;3.85;1.65;;;20.50;99.90;;;;;;5085933;28;20024;-57
2022/06/07 09:59:18;;;;;;;6.40;2.00;;;20.70;99.90;;;;;;5080200;28;20027;-58
2022/06/07 10:01:55;;;;;;;4.30;1.90;;;20.70;99.90;;;;;;5081439;28;20028;-57
2022/06/07 10:04:42;;;;;;;2.95;1.73;;;20.70;99.90;;;;;;5083614;28;20032;-57
2022/06/07 10:07:17;;;;;;;5.00;2.13;;;20.70;99.90;;;;;;5085607;28;20032;-58
2022/06/07 10:10:04;;;;;;;6.90;2.30;;;20.70;99.90;;;;;;5089230;28;20039;-57
2022/06/07 10:12:38;;;;;;;4.10;2.08;;;20.70;99.90;;;;;;5090308;28;20085;-58
2022/06/07 10:15:24;;;;;;;4.45;1.77;;;21.00;99.90;;;;;;5087346;28;20036;-58
2022/06/07 10:18:22;;;;;;;3.67;1.88;;;21.10;99.90;;;;;;5079944;28;20110;-57
2022/06/07 10:21:08;;;;;;;7.13;2.00;;;21.10;99.90;;;;;;5084181;28;20755;-58
2022/06/07 10:24:09;;;;;;;6.07;2.20;;;21.20;99.90;;;;;;5081587;28;20498;-57
2022/06/07 10:26:40;;;;;;;4.75;1.85;;;21.00;99.90;;;;;;5077528;28;20036;-57
2022/06/07 10:29:12;;;;;;;4.72;2.00;;;21.10;99.90;;;;;;5080540;28;20067;-57
2022/06/07 10:31:55;;;;;;;4.85;1.92;;;21.00;99.90;;;;;;5084337;28;20028;-57
2022/06/07 10:34:33;;;;;;;5.73;1.70;;;21.10;99.90;;;;;;5083058;28;20114;-57
2022/06/07 10:37:41;;;;;;;4.93;1.92;;;21.20;99.90;;;;;;5086686;28;20041;-57
2022/06/07 10:40:20;;;;;;;5.82;2.15;;;21.20;99.90;;;;;;5054920;28;20752;-58
2022/06/07 10:43:01;;;;;;;2.78;1.05;;;21.20;99.90;;;;;;5077563;28;20028;-57
2022/06/07 10:45:37;;;;;;;2.58;1.13;;;21.30;99.90;;;;;;5083132;28;20039;-57
2022/06/07 10:48:12;;;;;;;1.27;0.85;;;21.60;99.90;;;;;;5083679;28;20028;-57
2022/06/07 10:50:46;;;;;;;4.82;1.50;;;21.90;99.90;;;;;;5084794;28;20093;-58
2022/06/07 10:53:39;;;;;;;5.90;1.70;;;22.20;99.90;;;;;;5082796;28;21310;-58
2022/06/07 10:56:22;;;;;;;9.23;2.17;;;22.00;99.90;;;;;;5082212;28;20024;-57
2022/06/07 10:58:53;;;;;;;6.13;1.58;;;21.80;99.90;;;;;;5077009;28;20058;-58
2022/06/07 11:01:55;;;;;;;3.42;1.30;;;21.80;99.90;;;;;;5080073;28;20063;-58
2022/06/07 11:10:35;;;;;;;3.63;1.20;;;21.60;99.90;;;;;;5085615;28;20063;-58
2022/06/07 11:13:16;;;;;;;4.25;1.20;;;21.70;99.90;;;;;;5081597;28;20043;-58
2022/06/07 11:16:07;;;;;;;3.65;1.42;;;21.90;99.90;;;;;;5088140;28;20057;-59
2022/06/07 11:18:33;;;;;;;3.50;1.20;;;22.20;99.90;;;;;;5082199;28;20020;-59
2022/06/07 11:21:01;;;;;;;6.38;1.30;;;22.40;99.90;;;;;;5080457;28;20035;-58
2022/06/07 11:23:32;;;;;;;3.15;1.17;;;22.30;99.90;;;;;;5078964;28;20025;-59
2022/06/07 11:26:14;;;;;;;4.47;1.45;;;22.30;99.90;;;;;;5078888;28;20670;-59
2022/06/07 11:28:39;;;;;;;5.03;1.50;;;22.20;99.90;;;;;;5086634;28;20529;-60
2022/06/07 11:31:23;;;;;;;3.72;1.90;;;22.10;99.90;;;;;;5079852;28;20041;-69
2022/06/07 11:33:52;;;;;;;6.90;3.35;;;21.90;99.90;;;;;;5081551;28;20028;-60
2022/06/07 11:36:20;;;;;;;5.55;1.52;;;21.90;99.90;;;;;;5078539;28;20081;-59
2022/06/07 11:38:58;;;;;;;3.28;1.20;;;21.70;99.90;;;;;;5085177;28;20028;-59
2022/06/07 11:41:39;;;;;;;2.55;1.30;;;;;;;;;;5088876;28;20427;-58
2022/06/07 11:44:10;;;;;;;2.60;0.90;;;21.50;99.90;;;;;;5093944;28;20036;-60
2022/06/07 11:46:36;;;;;;;3.10;1.42;;;21.50;99.90;;;;;;5093865;28;20487;-58
2022/06/07 11:49:23;;;;;;;3.10;1.70;;;21.70;99.90;;;;;;5091744;28;20390;-58
2022/06/07 11:52:06;;;;;;;10.18;1.80;;;21.70;99.90;;;;;;5091078;28;20110;-60
2022/06/07 11:54:38;;;;;;;6.45;1.75;;;21.60;99.90;;;;;;5083329;28;20568;-59
2022/06/07 11:57:21;;;;;;;5.25;1.55;;;21.60;99.90;;;;;;5081597;28;20495;-58
2022/06/07 11:59:51;;;;;;;3.47;1.33;;;21.70;99.90;;;;;;5081250;28;20024;-60
2022/06/07 12:02:17;;;;;;;6.95;1.58;;;21.70;99.90;;;;;;5093098;28;20468;-58
2022/06/07 12:04:45;;;;;;;3.30;1.35;;;21.60;99.90;;;;;;5081015;28;20097;-59
2022/06/07 12:07:17;;;;;;;5.57;1.40;;;21.50;99.90;;;;;;5096749;28;20670;-58
2022/06/07 12:09:55;;;;;;;3.17;0.90;;;21.50;99.90;;;;;;5086948;28;20028;-59
2022/06/07 12:12:24;;;;;;;2.75;1.00;;;21.40;99.90;;;;;;5093636;28;20031;-60
2022/06/07 12:15:09;;;;;;;4.05;1.15;;;21.10;99.90;;;;;;5086159;28;20073;-61
2022/06/07 12:17:34;;;;;;;3.83;1.50;;;21.00;99.90;;;;;;5085159;28;20024;-59
2022/06/07 12:20:00;;;;;;;3.65;1.90;;;20.80;99.90;;;;;;5082942;28;20028;-59
2022/06/07 12:22:39;;;;;;;5.70;1.95;;;21.00;99.90;;;;;;5083423;28;20383;-59
2022/06/07 12:25:19;;;;;;;4.05;1.90;;;21.20;99.90;;;;;;5091236;28;20055;-58
2022/06/07 12:27:49;;;;;;;4.10;1.88;;;21.10;99.90;;;;;;5079182;28;20036;-60
2022/06/07 12:30:35;;;;;;;5.65;1.88;;;20.60;99.90;;;;;;5082506;28;20028;-60
2022/06/07 12:33:21;;;;;;;6.03;1.90;;;20.90;99.90;;;;;;5084349;28;20495;-59
2022/06/07 12:36:01;;;;;;;3.92;2.00;;;21.10;99.90;;;;;;5078389;28;20035;-60
2022/06/07 12:38:28;;;;;;;8.40;2.00;;;21.10;99.90;;;;;;5091346;28;20107;-59
2022/06/07 12:41:01;;;;;;;7.55;2.20;;;21.00;99.90;;;;;;5083550;28;20016;-60
2022/06/07 12:43:30;;;;;;;2.53;1.58;;;21.00;99.90;;;;;;5085264;28;20826;-59
2022/06/07 12:46:16;;;;;;;4.03;2.10;;;20.90;99.90;;;;;;5086875;28;20036;-60
2022/06/07 12:48:42;;;;;;;6.47;2.00;;;20.90;99.90;;;;;;5090948;28;20336;-60
2022/06/07 12:51:34;;;;;;;3.53;2.30;;;20.90;99.90;;;;;;5072459;28;20032;-59
2022/06/07 12:54:04;;;;;;;3.92;2.25;;;20.90;99.90;;;;;;5085304;28;20024;-59
2022/06/07 12:56:39;;;;;;;4.57;1.88;;;21.00;99.90;;;;;;5084019;28;20043;-60
2022/06/07 12:59:07;;;;;;;6.05;1.70;;;21.20;99.90;;;;;;5082387;28;20106;-59
2022/06/07 13:01:37;;;;;;;4.80;2.13;;;20.80;99.90;;;;;;5089787;28;20099;-59
2022/06/07 13:04:43;;;;;;;3.45;1.30;;;20.80;99.90;;;;;;5088527;28;20024;-58
2022/06/07 13:07:30;;;;;;;2.72;1.85;;;20.90;99.90;;;;;;5067716;28;20040;-60
2022/06/07 13:10:03;;;;;;;5.88;2.30;;;20.60;99.90;;;;;;5091485;28;20498;-59
2022/06/07 13:12:42;;;;;;;5.27;2.00;;;20.50;99.90;;;;;;5089018;28;20016;-59
2022/06/07 13:15:37;;;;;;;3.97;1.98;;;20.70;99.90;;;;;;5081238;28;20729;-59
2022/06/07 13:18:05;;;;;;;4.13;2.10;;;20.90;99.90;;;;;;5081914;28;20036;-59
2022/06/07 13:20:36;;;;;;;4.85;2.00;;;21.00;99.90;;;;;;5077762;28;20910;-60
2022/06/07 13:23:16;;;;;;;3.80;2.05;;;21.20;99.90;;;;;;5087049;28;20443;-60
2022/06/07 13:25:43;;;;;;;5.32;1.73;;;21.20;99.90;;;;;;5080010;28;20035;-58
2022/06/07 13:28:18;;;;;;;6.38;1.70;;;21.20;99.90;;;;;;5083904;28;20047;-59
2022/06/07 13:30:45;;;;;;;3.70;1.60;;;21.10;99.90;;;;;;5085898;28;20653;-60
2022/06/07 13:33:29;;;;;;;3.83;1.52;;;20.90;99.90;;;;;;5080489;28;20028;-58
2022/06/07 13:36:02;;;;;;;7.70;2.30;;;20.70;99.90;;;;;;5085675;28;20027;-59
2022/06/07 13:38:57;;;;;;;4.70;2.38;;;20.60;99.90;;;;;;5084772;28;20023;-58
2022/06/07 13:41:25;;;;;;;3.67;2.50;;;20.30;99.90;;;;;;5077977;28;20037;-59
2022/06/07 13:44:00;;;;;;;7.25;3.03;;;20.10;99.90;;;;;;5090182;28;20027;-59
2022/06/07 13:46:54;;;;;;;5.05;3.78;;;20.00;99.90;;;;;;5074847;28;20501;-59
2022/06/07 13:55:46;;;;;;;7.45;3.22;;;19.90;99.90;;;;;;5088565;28;20066;-59
2022/06/07 13:58:12;;;;;;;4.68;3.10;;;19.70;99.90;;;;;;5083548;28;20510;-58
2022/06/07 14:00:38;;;;;;;6.07;3.08;;;19.80;99.90;;;;;;5080528;28;20031;-58